sensor_id;sensor_type;location;lat;lon;timestamp;pressure;altitude;pressure_sealevel;temperature;humidity
37202;BME280;37799;52.390;6.136;2023-04-27T00:00:23;102091.88;;;0.46;100.00
37202;BME280;37799;52.390;6.136;2023-04-27T00:02:49;102098.00;;;0.51;100.00
37202;BME280;37799;52.390;6.136;2023-04-27T00:05:14;102099.69;;;0.51;100.00
37202;BME280;37799;52.390;6.136;2023-04-27T00:07:39;102100.56;;;0.51;100.00
37202;BME280;37799;52.390;6.136;2023-04-27T00:10:06;102097.31;;;0.55;100.00
37202;BME280;37799;52.390;6.136;2023-04-27T00:12:32;102093.94;;;0.56;100.00
37202;BME280;37799;52.390;6.136;2023-04-27T00:14:57;102091.34;;;0.55;100.00
37202;BME280;37799;52.390;6.136;2023-04-27T00:17:22;102097.09;;;0.49;100.00
37202;BME280;37799;52.390;6.136;2023-04-27T00:19:48;102101.16;;;0.44;100.00
37202;BME280;37799;52.390;6.136;2023-04-27T00:22:13;102105.25;;;0.39;100.00
37202;BME280;37799;52.390;6.136;2023-04-27T00:24:38;102105.00;;;0.33;100.00
37202;BME280;37799;52.390;6.136;2023-04-27T00:27:05;102103.03;;;0.26;100.00
37202;BME280;37799;52.390;6.136;2023-04-27T00:29:31;102098.59;;;0.20;100.00
37202;BME280;37799;52.390;6.136;2023-04-27T00:31:56;102103.63;;;0.19;100.00
37202;BME280;37799;52.390;6.136;2023-04-27T00:34:21;102100.84;;;0.13;100.00
37202;BME280;37799;52.390;6.136;2023-04-27T00:36:47;102108.44;;;0.11;100.00
37202;BME280;37799;52.390;6.136;2023-04-27T00:39:12;102105.84;;;0.10;100.00
37202;BME280;37799;52.390;6.136;2023-04-27T00:41:37;102098.91;;;0.06;100.00
37202;BME280;37799;52.390;6.136;2023-04-27T00:44:06;102099.72;;;0.05;100.00
37202;BME280;37799;52.390;6.136;2023-04-27T00:46:32;102102.16;;;0.02;100.00
37202;BME280;37799;52.390;6.136;2023-04-27T00:48:57;102103.75;;;-0.01;100.00
37202;BME280;37799;52.390;6.136;2023-04-27T00:51:23;102102.88;;;-0.01;100.00
37202;BME280;37799;52.390;6.136;2023-04-27T00:53:52;102109.56;;;-0.05;100.00
37202;BME280;37799;52.390;6.136;2023-04-27T00:56:18;102104.50;;;-0.03;100.00
37202;BME280;37799;52.390;6.136;2023-04-27T00:58:43;102106.19;;;-0.04;100.00
37202;BME280;37799;52.390;6.136;2023-04-27T01:01:08;102101.16;;;-0.02;100.00
37202;BME280;37799;52.390;6.136;2023-04-27T01:03:34;102092.59;;;-0.04;100.00
37202;BME280;37799;52.390;6.136;2023-04-27T01:05:59;102096.00;;;-0.04;100.00
37202;BME280;37799;52.390;6.136;2023-04-27T01:08:26;102091.72;;;-0.05;100.00
37202;BME280;37799;52.390;6.136;2023-04-27T01:10:52;102091.78;;;-0.03;100.00
37202;BME280;37799;52.390;6.136;2023-04-27T01:13:17;102097.56;;;0.15;100.00
37202;BME280;37799;52.390;6.136;2023-04-27T01:15:43;102105.53;;;0.24;100.00
37202;BME280;37799;52.390;6.136;2023-04-27T01:18:08;102106.09;;;0.16;100.00
37202;BME280;37799;52.390;6.136;2023-04-27T01:20:33;102089.78;;;0.12;100.00
37202;BME280;37799;52.390;6.136;2023-04-27T01:23:00;102091.63;;;0.15;100.00
37202;BME280;37799;52.390;6.136;2023-04-27T01:25:26;102091.44;;;0.10;100.00
37202;BME280;37799;52.390;6.136;2023-04-27T01:27:51;102089.53;;;0.05;100.00
37202;BME280;37799;52.390;6.136;2023-04-27T01:30:18;102087.09;;;0.08;100.00
37202;BME280;37799;52.390;6.136;2023-04-27T01:32:43;102100.75;;;0.10;100.00
37202;BME280;37799;52.390;6.136;2023-04-27T01:35:08;102101.91;;;0.18;100.00
37202;BME280;37799;52.390;6.136;2023-04-27T01:37:34;102100.22;;;0.18;100.00
37202;BME280;37799;52.390;6.136;2023-04-27T01:40:00;102105.94;;;0.13;100.00
37202;BME280;37799;52.390;6.136;2023-04-27T01:42:25;102101.56;;;0.09;100.00
37202;BME280;37799;52.390;6.136;2023-04-27T01:44:51;102103.91;;;0.03;100.00
37202;BME280;37799;52.390;6.136;2023-04-27T01:47:16;102105.56;;;0.02;100.00
37202;BME280;37799;52.390;6.136;2023-04-27T01:49:42;102115.72;;;0.01;100.00
37202;BME280;37799;52.390;6.136;2023-04-27T01:52:08;102120.56;;;-0.06;100.00
37202;BME280;37799;52.390;6.136;2023-04-27T01:54:33;102118.13;;;-0.03;100.00
37202;BME280;37799;52.390;6.136;2023-04-27T01:56:59;102115.09;;;0.08;100.00
37202;BME280;37799;52.390;6.136;2023-04-27T01:59:26;102121.13;;;0.10;100.00
37202;BME280;37799;52.390;6.136;2023-04-27T02:01:52;102115.97;;;0.08;100.00
37202;BME280;37799;52.390;6.136;2023-04-27T02:04:17;102110.72;;;0.04;100.00
37202;BME280;37799;52.390;6.136;2023-04-27T02:06:42;102104.66;;;0.00;100.00
37202;BME280;37799;52.390;6.136;2023-04-27T02:09:08;102111.28;;;-0.04;100.00
37202;BME280;37799;52.390;6.136;2023-04-27T02:11:33;102113.72;;;-0.07;100.00
37202;BME280;37799;52.390;6.136;2023-04-27T02:13:58;102113.50;;;-0.13;100.00
37202;BME280;37799;52.390;6.136;2023-04-27T02:16:24;102105.94;;;-0.11;100.00
37202;BME280;37799;52.390;6.136;2023-04-27T02:18:49;102104.97;;;-0.13;100.00
37202;BME280;37799;52.390;6.136;2023-04-27T02:21:17;102111.75;;;-0.14;100.00
37202;BME280;37799;52.390;6.136;2023-04-27T02:23:43;102104.81;;;-0.18;100.00
37202;BME280;37799;52.390;6.136;2023-04-27T02:26:20;102112.41;;;-0.19;100.00
37202;BME280;37799;52.390;6.136;2023-04-27T02:28:46;102108.06;;;-0.22;100.00
37202;BME280;37799;52.390;6.136;2023-04-27T02:31:12;102109.53;;;-0.27;100.00
37202;BME280;37799;52.390;6.136;2023-04-27T02:33:39;102110.41;;;-0.26;100.00
37202;BME280;37799;52.390;6.136;2023-04-27T02:36:04;102106.06;;;-0.29;100.00
37202;BME280;37799;52.390;6.136;2023-04-27T02:38:30;102104.44;;;-0.27;100.00
37202;BME280;37799;52.390;6.136;2023-04-27T02:40:55;102099.31;;;-0.28;100.00
37202;BME280;37799;52.390;6.136;2023-04-27T02:43:21;102097.63;;;-0.28;100.00
37202;BME280;37799;52.390;6.136;2023-04-27T02:45:46;102100.88;;;-0.32;100.00
37202;BME280;37799;52.390;6.136;2023-04-27T02:48:12;102094.09;;;-0.32;100.00
37202;BME280;37799;52.390;6.136;2023-04-27T02:50:44;102097.50;;;-0.31;100.00
37202;BME280;37799;52.390;6.136;2023-04-27T02:53:10;102094.16;;;-0.30;100.00
37202;BME280;37799;52.390;6.136;2023-04-27T02:55:36;102093.28;;;-0.31;100.00
37202;BME280;37799;52.390;6.136;2023-04-27T02:58:02;102097.41;;;-0.34;100.00
37202;BME280;37799;52.390;6.136;2023-04-27T03:00:27;102091.34;;;-0.38;100.00
37202;BME280;37799;52.390;6.136;2023-04-27T03:02:53;102097.16;;;-0.40;100.00
37202;BME280;37799;52.390;6.136;2023-04-27T03:05:18;102088.53;;;-0.44;100.00
37202;BME280;37799;52.390;6.136;2023-04-27T03:07:43;102080.03;;;-0.44;100.00
37202;BME280;37799;52.390;6.136;2023-04-27T03:10:09;102077.44;;;-0.46;100.00
37202;BME280;37799;52.390;6.136;2023-04-27T03:12:35;102075.53;;;-0.51;100.00
37202;BME280;37799;52.390;6.136;2023-04-27T03:15:00;102075.44;;;-0.53;100.00
37202;BME280;37799;52.390;6.136;2023-04-27T03:17:26;102078.56;;;-0.60;100.00
37202;BME280;37799;52.390;6.136;2023-04-27T03:19:51;102074.25;;;-0.63;100.00
37202;BME280;37799;52.390;6.136;2023-04-27T03:22:17;102071.69;;;-0.63;100.00
37202;BME280;37799;52.390;6.136;2023-04-27T03:24:42;102069.16;;;-0.63;100.00
37202;BME280;37799;52.390;6.136;2023-04-27T03:27:08;102063.31;;;-0.60;100.00
37202;BME280;37799;52.390;6.136;2023-04-27T03:29:33;102063.47;;;-0.55;100.00
37202;BME280;37799;52.390;6.136;2023-04-27T03:31:58;102059.22;;;-0.56;100.00
37202;BME280;37799;52.390;6.136;2023-04-27T03:34:24;102062.56;;;-0.57;100.00
37202;BME280;37799;52.390;6.136;2023-04-27T03:36:49;102065.81;;;-0.62;100.00
37202;BME280;37799;52.390;6.136;2023-04-27T03:39:15;102070.69;;;-0.66;100.00
37202;BME280;37799;52.390;6.136;2023-04-27T03:41:40;102068.16;;;-0.66;100.00
37202;BME280;37799;52.390;6.136;2023-04-27T03:44:06;102072.50;;;-0.64;100.00
37202;BME280;37799;52.390;6.136;2023-04-27T03:46:31;102072.31;;;-0.68;100.00
37202;BME280;37799;52.390;6.136;2023-04-27T03:48:56;102071.69;;;-0.63;100.00
37202;BME280;37799;52.390;6.136;2023-04-27T03:51:22;102078.47;;;-0.63;100.00
37202;BME280;37799;52.390;6.136;2023-04-27T03:53:47;102072.25;;;-0.70;100.00
37202;BME280;37799;52.390;6.136;2023-04-27T03:56:13;102083.59;;;-0.82;100.00
37202;BME280;37799;52.390;6.136;2023-04-27T03:58:38;102084.25;;;-0.88;100.00
37202;BME280;37799;52.390;6.136;2023-04-27T04:01:03;102091.66;;;-0.93;100.00
37202;BME280;37799;52.390;6.136;2023-04-27T04:03:29;102089.34;;;-0.88;100.00
37202;BME280;37799;52.390;6.136;2023-04-27T04:05:54;102091.75;;;-0.91;100.00
37202;BME280;37799;52.390;6.136;2023-04-27T04:08:20;102085.66;;;-0.95;100.00
37202;BME280;37799;52.390;6.136;2023-04-27T04:10:45;102095.66;;;-0.99;100.00
37202;BME280;37799;52.390;6.136;2023-04-27T04:13:11;102094.78;;;-1.00;100.00
37202;BME280;37799;52.390;6.136;2023-04-27T04:15:36;102098.94;;;-1.02;100.00
37202;BME280;37799;52.390;6.136;2023-04-27T04:18:02;102097.13;;;-1.04;100.00
37202;BME280;37799;52.390;6.136;2023-04-27T04:20:27;102108.91;;;-1.06;100.00
37202;BME280;37799;52.390;6.136;2023-04-27T04:22:53;102101.47;;;-1.02;100.00
37202;BME280;37799;52.390;6.136;2023-04-27T04:25:18;102109.09;;;-1.02;100.00
37202;BME280;37799;52.390;6.136;2023-04-27T04:27:44;102105.81;;;-0.99;100.00
37202;BME280;37799;52.390;6.136;2023-04-27T04:30:10;102111.09;;;-0.95;100.00
37202;BME280;37799;52.390;6.136;2023-04-27T04:32:36;102107.44;;;-1.01;100.00
37202;BME280;37799;52.390;6.136;2023-04-27T04:35:05;102106.75;;;-0.97;100.00
37202;BME280;37799;52.390;6.136;2023-04-27T04:37:34;102106.88;;;-0.94;100.00
37202;BME280;37799;52.390;6.136;2023-04-27T04:39:59;102102.34;;;-1.01;100.00
37202;BME280;37799;52.390;6.136;2023-04-27T04:42:25;102103.16;;;-1.02;100.00
37202;BME280;37799;52.390;6.136;2023-04-27T04:44:51;102111.03;;;-0.96;100.00
37202;BME280;37799;52.390;6.136;2023-04-27T04:47:17;102115.28;;;-0.95;100.00
37202;BME280;37799;52.390;6.136;2023-04-27T04:49:43;102111.28;;;-0.90;100.00
37202;BME280;37799;52.390;6.136;2023-04-27T04:52:08;102118.91;;;-0.90;100.00
37202;BME280;37799;52.390;6.136;2023-04-27T04:54:33;102119.03;;;-0.87;100.00
37202;BME280;37799;52.390;6.136;2023-04-27T04:56:59;102119.09;;;-0.85;100.00
37202;BME280;37799;52.390;6.136;2023-04-27T04:59:25;102118.16;;;-0.87;100.00
37202;BME280;37799;52.390;6.136;2023-04-27T05:01:51;102125.84;;;-0.86;100.00
37202;BME280;37799;52.390;6.136;2023-04-27T05:04:19;102120.09;;;-0.82;100.00
37202;BME280;37799;52.390;6.136;2023-04-27T05:06:45;102117.06;;;-0.73;100.00
37202;BME280;37799;52.390;6.136;2023-04-27T05:09:11;102115.69;;;-0.65;100.00
37202;BME280;37799;52.390;6.136;2023-04-27T05:11:36;102110.09;;;-0.56;100.00
37202;BME280;37799;52.390;6.136;2023-04-27T05:14:01;102106.28;;;-0.45;100.00
37202;BME280;37799;52.390;6.136;2023-04-27T05:16:26;102111.06;;;-0.32;100.00
37202;BME280;37799;52.390;6.136;2023-04-27T05:18:52;102113.19;;;-0.20;100.00
37202;BME280;37799;52.390;6.136;2023-04-27T05:21:19;102118.06;;;-0.04;100.00
37202;BME280;37799;52.390;6.136;2023-04-27T05:23:46;102124.25;;;0.03;100.00
37202;BME280;37799;52.390;6.136;2023-04-27T05:26:16;102122.13;;;0.13;100.00
37202;BME280;37799;52.390;6.136;2023-04-27T05:28:42;102129.31;;;0.25;100.00
37202;BME280;37799;52.390;6.136;2023-04-27T05:31:08;102138.13;;;0.33;100.00
37202;BME280;37799;52.390;6.136;2023-04-27T05:33:34;102143.56;;;0.42;100.00
37202;BME280;37799;52.390;6.136;2023-04-27T05:35:59;102138.78;;;0.51;100.00
37202;BME280;37799;52.390;6.136;2023-04-27T05:38:25;102142.47;;;0.59;100.00
37202;BME280;37799;52.390;6.136;2023-04-27T05:40:54;102142.81;;;0.69;100.00
37202;BME280;37799;52.390;6.136;2023-04-27T05:43:20;102133.72;;;0.77;100.00
37202;BME280;37799;52.390;6.136;2023-04-27T05:45:46;102141.22;;;0.96;100.00
37202;BME280;37799;52.390;6.136;2023-04-27T05:48:11;102147.84;;;1.16;100.00
37202;BME280;37799;52.390;6.136;2023-04-27T05:50:38;102154.44;;;1.35;100.00
37202;BME280;37799;52.390;6.136;2023-04-27T05:53:03;102162.97;;;1.63;100.00
37202;BME280;37799;52.390;6.136;2023-04-27T05:55:30;102165.41;;;1.85;100.00
37202;BME280;37799;52.390;6.136;2023-04-27T05:57:55;102167.09;;;2.13;100.00
37202;BME280;37799;52.390;6.136;2023-04-27T06:00:21;102167.09;;;2.43;100.00
37202;BME280;37799;52.390;6.136;2023-04-27T06:02:47;102167.28;;;2.79;100.00
37202;BME280;37799;52.390;6.136;2023-04-27T06:05:15;102160.19;;;3.35;100.00
37202;BME280;37799;52.390;6.136;2023-04-27T06:07:40;102165.44;;;4.13;100.00
37202;BME280;37799;52.390;6.136;2023-04-27T06:10:08;102167.09;;;4.96;100.00
37202;BME280;37799;52.390;6.136;2023-04-27T06:12:34;102164.88;;;5.67;100.00
37202;BME280;37799;52.390;6.136;2023-04-27T06:14:59;102159.00;;;6.36;100.00
37202;BME280;37799;52.390;6.136;2023-04-27T06:17:27;102160.72;;;7.13;100.00
37202;BME280;37799;52.390;6.136;2023-04-27T06:19:52;102161.28;;;7.85;100.00
37202;BME280;37799;52.390;6.136;2023-04-27T06:22:18;102166.78;;;8.38;100.00
37202;BME280;37799;52.390;6.136;2023-04-27T06:24:43;102174.69;;;8.89;100.00
37202;BME280;37799;52.390;6.136;2023-04-27T06:27:08;102179.06;;;9.17;100.00
37202;BME280;37799;52.390;6.136;2023-04-27T06:29:34;102185.09;;;9.40;100.00
37202;BME280;37799;52.390;6.136;2023-04-27T06:31:59;102183.38;;;9.64;100.00
37202;BME280;37799;52.390;6.136;2023-04-27T06:34:25;102189.38;;;9.92;100.00
37202;BME280;37799;52.390;6.136;2023-04-27T06:36:51;102197.13;;;10.01;100.00
37202;BME280;37799;52.390;6.136;2023-04-27T06:39:16;102191.97;;;9.95;100.00
37202;BME280;37799;52.390;6.136;2023-04-27T06:41:41;102200.59;;;9.91;100.00
37202;BME280;37799;52.390;6.136;2023-04-27T06:44:07;102202.31;;;9.84;100.00
37202;BME280;37799;52.390;6.136;2023-04-27T06:46:32;102195.41;;;9.89;100.00
37202;BME280;37799;52.390;6.136;2023-04-27T06:48:58;102204.03;;;10.00;100.00
37202;BME280;37799;52.390;6.136;2023-04-27T06:51:23;102195.34;;;10.27;100.00
37202;BME280;37799;52.390;6.136;2023-04-27T06:53:48;102196.16;;;10.51;100.00
37202;BME280;37799;52.390;6.136;2023-04-27T06:56:14;102202.13;;;10.67;100.00
37202;BME280;37799;52.390;6.136;2023-04-27T06:58:39;102196.81;;;10.94;100.00
37202;BME280;37799;52.390;6.136;2023-04-27T07:01:05;102200.19;;;11.08;100.00
37202;BME280;37799;52.390;6.136;2023-04-27T07:03:33;102195.03;;;10.99;100.00
37202;BME280;37799;52.390;6.136;2023-04-27T07:05:59;102203.75;;;10.86;100.00
37202;BME280;37799;52.390;6.136;2023-04-27T07:08:24;102197.78;;;10.75;100.00
37202;BME280;37799;52.390;6.136;2023-04-27T07:10:50;102188.25;;;10.78;100.00
37202;BME280;37799;52.390;6.136;2023-04-27T07:13:15;102195.13;;;10.87;100.00
37202;BME280;37799;52.390;6.136;2023-04-27T07:15:40;102191.56;;;11.03;100.00
37202;BME280;37799;52.390;6.136;2023-04-27T07:18:06;102189.50;;;11.51;100.00
37202;BME280;37799;52.390;6.136;2023-04-27T07:20:32;102192.09;;;11.51;100.00
37202;BME280;37799;52.390;6.136;2023-04-27T07:22:57;102190.16;;;11.76;100.00
37202;BME280;37799;52.390;6.136;2023-04-27T07:25:22;102196.91;;;11.95;98.35
37202;BME280;37799;52.390;6.136;2023-04-27T07:27:48;102201.75;;;12.29;96.03
37202;BME280;37799;52.390;6.136;2023-04-27T07:30:13;102205.03;;;12.45;93.33
37202;BME280;37799;52.390;6.136;2023-04-27T07:32:40;102194.66;;;12.42;90.82
37202;BME280;37799;52.390;6.136;2023-04-27T07:35:06;102200.81;;;12.34;91.94
37202;BME280;37799;52.390;6.136;2023-04-27T07:37:33;102196.66;;;12.18;90.32
37202;BME280;37799;52.390;6.136;2023-04-27T07:39:58;102208.56;;;12.36;86.99
37202;BME280;37799;52.390;6.136;2023-04-27T07:42:24;102209.47;;;12.33;83.29
37202;BME280;37799;52.390;6.136;2023-04-27T07:44:50;102212.22;;;12.20;83.37
37202;BME280;37799;52.390;6.136;2023-04-27T07:47:16;102210.16;;;12.51;84.50
37202;BME280;37799;52.390;6.136;2023-04-27T07:49:43;102219.50;;;12.62;77.99
37202;BME280;37799;52.390;6.136;2023-04-27T07:52:10;102218.84;;;12.47;79.29
37202;BME280;37799;52.390;6.136;2023-04-27T07:54:36;102211.31;;;12.22;78.57
37202;BME280;37799;52.390;6.136;2023-04-27T07:57:07;102209.66;;;12.18;79.95
37202;BME280;37799;52.390;6.136;2023-04-27T07:59:33;102210.03;;;12.60;79.62
37202;BME280;37799;52.390;6.136;2023-04-27T08:01:58;102207.16;;;12.81;82.18
37202;BME280;37799;52.390;6.136;2023-04-27T08:04:23;102213.13;;;12.89;77.63
37202;BME280;37799;52.390;6.136;2023-04-27T08:06:49;102204.69;;;12.70;79.00
37202;BME280;37799;52.390;6.136;2023-04-27T08:09:14;102214.03;;;12.85;76.62
37202;BME280;37799;52.390;6.136;2023-04-27T08:11:40;102221.88;;;12.82;73.13
37202;BME280;37799;52.390;6.136;2023-04-27T08:14:05;102215.16;;;12.66;74.99
37202;BME280;37799;52.390;6.136;2023-04-27T08:16:33;102217.66;;;12.72;76.67
37202;BME280;37799;52.390;6.136;2023-04-27T08:18:58;102220.03;;;12.89;72.21
37202;BME280;37799;52.390;6.136;2023-04-27T08:21:23;102213.97;;;12.88;70.12
37202;BME280;37799;52.390;6.136;2023-04-27T08:23:49;102217.41;;;12.93;67.94
37202;BME280;37799;52.390;6.136;2023-04-27T08:26:15;102201.69;;;12.99;68.84
37202;BME280;37799;52.390;6.136;2023-04-27T08:28:40;102212.06;;;13.03;69.34
37202;BME280;37799;52.390;6.136;2023-04-27T08:31:06;102217.09;;;13.13;68.15
37202;BME280;37799;52.390;6.136;2023-04-27T08:33:31;102221.50;;;13.10;64.29
37202;BME280;37799;52.390;6.136;2023-04-27T08:35:57;102223.78;;;13.34;65.92
37202;BME280;37799;52.390;6.136;2023-04-27T08:38:22;102223.66;;;13.40;62.36
37202;BME280;37799;52.390;6.136;2023-04-27T08:40:47;102227.13;;;13.42;62.36
37202;BME280;37799;52.390;6.136;2023-04-27T08:43:13;102224.00;;;13.17;66.24
37202;BME280;37799;52.390;6.136;2023-04-27T08:45:47;102221.00;;;13.45;62.07
37202;BME280;37799;52.390;6.136;2023-04-27T08:48:13;102215.78;;;13.97;62.53
37202;BME280;37799;52.390;6.136;2023-04-27T08:50:42;102205.19;;;14.06;63.22
37202;BME280;37799;52.390;6.136;2023-04-27T08:53:21;102213.31;;;14.36;60.99
37202;BME280;37799;52.390;6.136;2023-04-27T08:55:47;102208.19;;;14.30;56.00
37202;BME280;37799;52.390;6.136;2023-04-27T08:58:13;102221.59;;;14.56;50.64
37202;BME280;37799;52.390;6.136;2023-04-27T09:00:40;102219.72;;;14.64;49.84
37202;BME280;37799;52.390;6.136;2023-04-27T09:03:27;102208.06;;;14.81;51.06
37202;BME280;37799;52.390;6.136;2023-04-27T09:05:53;102210.94;;;15.07;48.81
37202;BME280;37799;52.390;6.136;2023-04-27T09:08:18;102210.13;;;15.05;49.08
37202;BME280;37799;52.390;6.136;2023-04-27T09:10:48;102211.44;;;15.60;46.09
37202;BME280;37799;52.390;6.136;2023-04-27T09:13:14;102211.97;;;15.39;41.98
37202;BME280;37799;52.390;6.136;2023-04-27T09:15:44;102209.34;;;14.61;42.20
37202;BME280;37799;52.390;6.136;2023-04-27T09:18:15;102202.84;;;15.19;43.41
37202;BME280;37799;52.390;6.136;2023-04-27T09:20:42;102212.00;;;15.37;41.34
37202;BME280;37799;52.390;6.136;2023-04-27T09:23:08;102194.50;;;15.76;39.71
37202;BME280;37799;52.390;6.136;2023-04-27T09:25:33;102198.25;;;15.66;37.87
37202;BME280;37799;52.390;6.136;2023-04-27T09:28:00;102199.19;;;15.26;37.27
37202;BME280;37799;52.390;6.136;2023-04-27T09:30:26;102203.28;;;15.01;38.65
37202;BME280;37799;52.390;6.136;2023-04-27T09:32:54;102202.03;;;15.17;40.31
37202;BME280;37799;52.390;6.136;2023-04-27T09:35:29;102195.53;;;15.33;41.30
37202;BME280;37799;52.390;6.136;2023-04-27T09:37:59;102194.50;;;15.41;38.23
37202;BME280;37799;52.390;6.136;2023-04-27T09:40:26;102195.41;;;15.40;35.13
37202;BME280;37799;52.390;6.136;2023-04-27T09:42:56;102195.31;;;15.43;34.43
37202;BME280;37799;52.390;6.136;2023-04-27T09:45:23;102184.34;;;15.28;36.00
37202;BME280;37799;52.390;6.136;2023-04-27T09:47:49;102182.13;;;15.13;36.38
37202;BME280;37799;52.390;6.136;2023-04-27T09:50:15;102180.03;;;15.27;38.14
37202;BME280;37799;52.390;6.136;2023-04-27T09:52:40;102173.41;;;15.48;37.01
37202;BME280;37799;52.390;6.136;2023-04-27T09:55:11;102177.63;;;15.89;35.34
37202;BME280;37799;52.390;6.136;2023-04-27T09:57:48;102178.59;;;15.85;34.16
37202;BME280;37799;52.390;6.136;2023-04-27T10:08:24;102158.22;;;16.29;35.85
37202;BME280;37799;52.390;6.136;2023-04-27T10:10:52;102161.47;;;16.37;37.60
37202;BME280;37799;52.390;6.136;2023-04-27T10:13:23;102159.75;;;16.67;36.91
37202;BME280;37799;52.390;6.136;2023-04-27T10:15:49;102162.56;;;17.16;37.38
37202;BME280;37799;52.390;6.136;2023-04-27T10:18:29;102170.19;;;17.23;34.02
37202;BME280;37799;52.390;6.136;2023-04-27T10:20:55;102163.44;;;17.16;34.90
37202;BME280;37799;52.390;6.136;2023-04-27T10:23:25;102160.59;;;16.96;33.74
37202;BME280;37799;52.390;6.136;2023-04-27T10:25:51;102161.94;;;17.09;35.62
37202;BME280;37799;52.390;6.136;2023-04-27T10:28:17;102151.69;;;17.01;35.82
37202;BME280;37799;52.390;6.136;2023-04-27T10:30:44;102153.47;;;16.73;33.79
37202;BME280;37799;52.390;6.136;2023-04-27T10:33:21;102151.66;;;16.75;34.63
37202;BME280;37799;52.390;6.136;2023-04-27T10:35:57;102151.00;;;16.96;34.59
37202;BME280;37799;52.390;6.136;2023-04-27T10:38:28;102154.69;;;16.89;32.63
37202;BME280;37799;52.390;6.136;2023-04-27T10:41:01;102153.78;;;16.61;34.77
37202;BME280;37799;52.390;6.136;2023-04-27T10:43:30;102155.72;;;16.56;34.72
37202;BME280;37799;52.390;6.136;2023-04-27T10:46:25;102145.41;;;16.49;36.58
37202;BME280;37799;52.390;6.136;2023-04-27T10:48:51;102148.78;;;16.23;36.71
37202;BME280;37799;52.390;6.136;2023-04-27T10:51:16;102146.47;;;16.13;36.58
37202;BME280;37799;52.390;6.136;2023-04-27T10:53:42;102143.00;;;16.43;37.51
37202;BME280;37799;52.390;6.136;2023-04-27T10:56:10;102151.00;;;16.96;37.31
37202;BME280;37799;52.390;6.136;2023-04-27T10:58:36;102153.50;;;16.99;35.55
37202;BME280;37799;52.390;6.136;2023-04-27T11:01:02;102148.56;;;17.43;34.01
37202;BME280;37799;52.390;6.136;2023-04-27T11:29:20;102131.78;;;16.69;36.78
37202;BME280;37799;52.390;6.136;2023-04-27T11:31:49;102124.81;;;16.96;38.12
37202;BME280;37799;52.390;6.136;2023-04-27T11:34:22;102127.59;;;17.69;34.19
37202;BME280;37799;52.390;6.136;2023-04-27T11:36:58;102131.88;;;18.44;34.38
37202;BME280;37799;52.390;6.136;2023-04-27T11:39:28;102125.66;;;18.46;31.95
37202;BME280;37799;52.390;6.136;2023-04-27T11:41:56;102124.25;;;18.14;34.11
37202;BME280;37799;52.390;6.136;2023-04-27T11:44:25;102121.69;;;18.13;32.40
37202;BME280;37799;52.390;6.136;2023-04-27T11:46:54;102117.81;;;18.00;32.82
37202;BME280;37799;52.390;6.136;2023-04-27T11:49:19;102114.81;;;18.10;33.41
37202;BME280;37799;52.390;6.136;2023-04-27T11:51:45;102119.28;;;18.53;31.70
37202;BME280;37799;52.390;6.136;2023-04-27T11:54:10;102116.16;;;18.20;33.58
37202;BME280;37799;52.390;6.136;2023-04-27T11:56:40;102100.31;;;18.23;32.13
37202;BME280;37799;52.390;6.136;2023-04-27T11:59:20;102111.13;;;18.38;33.68
37202;BME280;37799;52.390;6.136;2023-04-27T12:01:46;102107.09;;;18.74;35.04
37202;BME280;37799;52.390;6.136;2023-04-27T12:04:11;102112.59;;;18.45;32.47
37202;BME280;37799;52.390;6.136;2023-04-27T12:06:36;102106.44;;;18.46;33.03
37202;BME280;37799;52.390;6.136;2023-04-27T12:09:02;102107.28;;;18.01;33.47
37202;BME280;37799;52.390;6.136;2023-04-27T12:11:30;102110.03;;;18.20;33.64
37202;BME280;37799;52.390;6.136;2023-04-27T12:13:57;102101.06;;;18.27;33.56
37202;BME280;37799;52.390;6.136;2023-04-27T12:16:22;102107.94;;;18.30;33.97
37202;BME280;37799;52.390;6.136;2023-04-27T12:18:51;102105.72;;;18.42;32.22
37202;BME280;37799;52.390;6.136;2023-04-27T12:21:16;102098.44;;;18.72;34.20
37202;BME280;37799;52.390;6.136;2023-04-27T12:23:42;102103.25;;;18.83;31.48
37202;BME280;37799;52.390;6.136;2023-04-27T12:26:09;102102.53;;;18.79;32.90
37202;BME280;37799;52.390;6.136;2023-04-27T12:28:34;102097.59;;;18.48;31.89
37202;BME280;37799;52.390;6.136;2023-04-27T12:31:03;102106.19;;;18.07;33.09
37202;BME280;37799;52.390;6.136;2023-04-27T12:33:28;102103.22;;;17.92;32.25
37202;BME280;37799;52.390;6.136;2023-04-27T12:35:54;102096.09;;;17.73;32.53
37202;BME280;37799;52.390;6.136;2023-04-27T12:38:19;102094.47;;;17.68;32.57
37202;BME280;37799;52.390;6.136;2023-04-27T12:40:45;102088.44;;;17.65;31.84
37202;BME280;37799;52.390;6.136;2023-04-27T12:43:10;102087.72;;;18.10;32.38
37202;BME280;37799;52.390;6.136;2023-04-27T12:45:36;102088.66;;;17.84;33.36
37202;BME280;37799;52.390;6.136;2023-04-27T12:48:02;102089.84;;;18.00;31.62
37202;BME280;37799;52.390;6.136;2023-04-27T12:50:27;102085.56;;;17.74;32.97
37202;BME280;37799;52.390;6.136;2023-04-27T12:52:53;102076.06;;;17.70;31.66
37202;BME280;37799;52.390;6.136;2023-04-27T12:55:18;102067.63;;;17.87;31.96
37202;BME280;37799;52.390;6.136;2023-04-27T12:57:44;102072.69;;;17.91;31.67
37202;BME280;37799;52.390;6.136;2023-04-27T13:00:09;102071.34;;;18.26;32.56
37202;BME280;37799;52.390;6.136;2023-04-27T13:02:35;102068.91;;;18.22;33.33
37202;BME280;37799;52.390;6.136;2023-04-27T13:05:01;102070.28;;;18.09;34.00
37202;BME280;37799;52.390;6.136;2023-04-27T13:07:28;102062.00;;;17.96;32.30
37202;BME280;37799;52.390;6.136;2023-04-27T13:09:53;102058.91;;;18.32;32.65
37202;BME280;37799;52.390;6.136;2023-04-27T13:12:19;102050.69;;;18.64;33.97
37202;BME280;37799;52.390;6.136;2023-04-27T13:14:44;102054.94;;;18.67;33.07